sensor_id;sensor_type;location;lat;lon;timestamp;temperature;humidity
780;DHT22;373;49.342;8.146;2022-12-07T00:01:17;5.60;99.90
780;DHT22;373;49.342;8.146;2022-12-07T00:03:46;5.60;99.90
780;DHT22;373;49.342;8.146;2022-12-07T00:06:16;5.60;99.90
780;DHT22;373;49.342;8.146;2022-12-07T00:08:44;5.60;99.90
780;DHT22;373;49.342;8.146;2022-12-07T00:11:13;5.50;99.90
780;DHT22;373;49.342;8.146;2022-12-07T00:13:41;5.50;99.90
780;DHT22;373;49.342;8.146;2022-12-07T00:16:10;5.50;99.90
780;DHT22;373;49.342;8.146;2022-12-07T00:18:38;5.50;99.90
780;DHT22;373;49.342;8.146;2022-12-07T00:21:06;5.50;99.90
780;DHT22;373;49.342;8.146;2022-12-07T00:23:36;5.50;99.90
780;DHT22;373;49.342;8.146;2022-12-07T00:26:04;5.60;99.90
780;DHT22;373;49.342;8.146;2022-12-07T00:28:31;5.60;99.90
780;DHT22;373;49.342;8.146;2022-12-07T00:31:04;5.70;99.90
780;DHT22;373;49.342;8.146;2022-12-07T00:33:31;5.60;99.90
780;DHT22;373;49.342;8.146;2022-12-07T00:35:59;5.70;99.90
780;DHT22;373;49.342;8.146;2022-12-07T00:38:28;5.90;99.90
780;DHT22;373;49.342;8.146;2022-12-07T00:40:58;6.10;99.90
780;DHT22;373;49.342;8.146;2022-12-07T00:43:26;6.20;99.90
780;DHT22;373;49.342;8.146;2022-12-07T00:45:54;6.20;99.90
780;DHT22;373;49.342;8.146;2022-12-07T00:48:21;6.20;99.90
780;DHT22;373;49.342;8.146;2022-12-07T00:50:49;6.20;99.90
780;DHT22;373;49.342;8.146;2022-12-07T00:53:16;6.30;99.90
780;DHT22;373;49.342;8.146;2022-12-07T00:55:44;6.50;99.90
780;DHT22;373;49.342;8.146;2022-12-07T00:58:12;6.60;99.90
780;DHT22;373;49.342;8.146;2022-12-07T01:00:41;6.80;99.90
780;DHT22;373;49.342;8.146;2022-12-07T01:03:11;6.90;99.90
780;DHT22;373;49.342;8.146;2022-12-07T01:05:38;7.00;99.90
780;DHT22;373;49.342;8.146;2022-12-07T01:08:06;7.00;99.20
780;DHT22;373;49.342;8.146;2022-12-07T01:10:33;7.10;99.80
780;DHT22;373;49.342;8.146;2022-12-07T01:13:00;6.90;99.90
780;DHT22;373;49.342;8.146;2022-12-07T01:15:29;6.90;99.90
780;DHT22;373;49.342;8.146;2022-12-07T01:17:56;6.80;99.90
780;DHT22;373;49.342;8.146;2022-12-07T01:20:23;6.50;99.90
780;DHT22;373;49.342;8.146;2022-12-07T01:22:50;6.80;99.90
780;DHT22;373;49.342;8.146;2022-12-07T01:25:17;6.70;99.90
780;DHT22;373;49.342;8.146;2022-12-07T01:27:44;6.70;99.90
780;DHT22;373;49.342;8.146;2022-12-07T01:30:14;6.20;99.90
780;DHT22;373;49.342;8.146;2022-12-07T01:32:43;6.00;99.90
780;DHT22;373;49.342;8.146;2022-12-07T01:35:10;5.80;99.90
780;DHT22;373;49.342;8.146;2022-12-07T01:37:38;5.80;99.90
780;DHT22;373;49.342;8.146;2022-12-07T01:40:07;5.90;99.90
780;DHT22;373;49.342;8.146;2022-12-07T01:42:34;5.80;99.90
780;DHT22;373;49.342;8.146;2022-12-07T01:50:35;6.60;99.90
780;DHT22;373;49.342;8.146;2022-12-07T01:53:04;6.50;99.90
780;DHT22;373;49.342;8.146;2022-12-07T01:55:32;6.40;99.90
780;DHT22;373;49.342;8.146;2022-12-07T01:58:00;6.40;99.90
780;DHT22;373;49.342;8.146;2022-12-07T02:00:27;6.40;99.90
780;DHT22;373;49.342;8.146;2022-12-07T02:03:00;6.50;99.90
780;DHT22;373;49.342;8.146;2022-12-07T02:05:30;6.30;99.90
780;DHT22;373;49.342;8.146;2022-12-07T02:07:58;6.20;99.90
780;DHT22;373;49.342;8.146;2022-12-07T02:10:27;6.10;99.90
780;DHT22;373;49.342;8.146;2022-12-07T02:12:57;6.00;99.90
780;DHT22;373;49.342;8.146;2022-12-07T02:15:31;5.90;99.90
780;DHT22;373;49.342;8.146;2022-12-07T02:18:04;5.90;99.90
780;DHT22;373;49.342;8.146;2022-12-07T02:20:37;5.80;99.90
780;DHT22;373;49.342;8.146;2022-12-07T02:23:28;5.70;99.90
780;DHT22;373;49.342;8.146;2022-12-07T02:26:23;5.50;99.90
780;DHT22;373;49.342;8.146;2022-12-07T02:29:09;5.40;99.90
780;DHT22;373;49.342;8.146;2022-12-07T02:31:41;5.20;99.90
780;DHT22;373;49.342;8.146;2022-12-07T02:34:14;5.10;99.90
780;DHT22;373;49.342;8.146;2022-12-07T02:36:50;5.00;99.90
780;DHT22;373;49.342;8.146;2022-12-07T02:39:23;5.10;99.90
780;DHT22;373;49.342;8.146;2022-12-07T02:41:56;5.20;99.90
780;DHT22;373;49.342;8.146;2022-12-07T02:44:27;5.40;99.90
780;DHT22;373;49.342;8.146;2022-12-07T02:46:57;5.40;99.90
780;DHT22;373;49.342;8.146;2022-12-07T02:49:27;5.40;99.90
780;DHT22;373;49.342;8.146;2022-12-07T02:51:55;5.60;99.90
780;DHT22;373;49.342;8.146;2022-12-07T02:54:22;5.70;99.90
780;DHT22;373;49.342;8.146;2022-12-07T02:56:52;5.90;99.90
780;DHT22;373;49.342;8.146;2022-12-07T02:59:30;6.00;99.10
780;DHT22;373;49.342;8.146;2022-12-07T03:02:10;6.20;99.60
780;DHT22;373;49.342;8.146;2022-12-07T03:04:45;6.10;99.90
780;DHT22;373;49.342;8.146;2022-12-07T03:07:24;6.20;99.90
780;DHT22;373;49.342;8.146;2022-12-07T03:10:00;5.90;99.90
780;DHT22;373;49.342;8.146;2022-12-07T03:12:34;5.80;99.90
780;DHT22;373;49.342;8.146;2022-12-07T03:15:07;6.00;99.90
780;DHT22;373;49.342;8.146;2022-12-07T03:17:38;6.00;99.90
780;DHT22;373;49.342;8.146;2022-12-07T03:20:09;6.10;99.90
780;DHT22;373;49.342;8.146;2022-12-07T03:22:40;6.20;99.90
780;DHT22;373;49.342;8.146;2022-12-07T03:25:10;6.30;99.70
780;DHT22;373;49.342;8.146;2022-12-07T03:27:41;6.00;97.80
780;DHT22;373;49.342;8.146;2022-12-07T03:30:15;5.90;98.70
780;DHT22;373;49.342;8.146;2022-12-07T03:32:45;5.90;98.90
780;DHT22;373;49.342;8.146;2022-12-07T03:35:17;5.80;98.70
780;DHT22;373;49.342;8.146;2022-12-07T03:37:49;5.80;98.90
780;DHT22;373;49.342;8.146;2022-12-07T03:40:23;5.90;98.90
780;DHT22;373;49.342;8.146;2022-12-07T03:42:53;6.00;97.90
780;DHT22;373;49.342;8.146;2022-12-07T03:45:26;5.80;99.90
780;DHT22;373;49.342;8.146;2022-12-07T03:48:05;5.70;99.90
780;DHT22;373;49.342;8.146;2022-12-07T03:50:38;6.00;99.90
780;DHT22;373;49.342;8.146;2022-12-07T03:53:12;6.00;99.80
780;DHT22;373;49.342;8.146;2022-12-07T03:55:43;6.00;99.90
780;DHT22;373;49.342;8.146;2022-12-07T03:58:15;6.00;99.60
780;DHT22;373;49.342;8.146;2022-12-07T04:00:46;6.20;99.80
780;DHT22;373;49.342;8.146;2022-12-07T04:03:13;6.20;99.40
780;DHT22;373;49.342;8.146;2022-12-07T04:05:41;6.20;98.60
780;DHT22;373;49.342;8.146;2022-12-07T04:08:08;6.20;98.30
780;DHT22;373;49.342;8.146;2022-12-07T04:10:35;6.20;98.40
780;DHT22;373;49.342;8.146;2022-12-07T04:13:02;5.90;98.60
780;DHT22;373;49.342;8.146;2022-12-07T04:15:29;6.00;99.20
780;DHT22;373;49.342;8.146;2022-12-07T04:17:58;6.30;98.80
780;DHT22;373;49.342;8.146;2022-12-07T04:20:25;6.20;98.80
780;DHT22;373;49.342;8.146;2022-12-07T04:22:52;6.20;99.50
780;DHT22;373;49.342;8.146;2022-12-07T04:25:19;6.30;98.70
780;DHT22;373;49.342;8.146;2022-12-07T04:27:46;6.00;99.00
780;DHT22;373;49.342;8.146;2022-12-07T04:30:13;6.00;99.90
780;DHT22;373;49.342;8.146;2022-12-07T04:32:40;6.00;99.90
780;DHT22;373;49.342;8.146;2022-12-07T04:35:09;6.00;99.90
780;DHT22;373;49.342;8.146;2022-12-07T04:37:36;5.80;99.90
780;DHT22;373;49.342;8.146;2022-12-07T04:40:06;5.80;99.90
780;DHT22;373;49.342;8.146;2022-12-07T04:42:34;5.80;99.90
780;DHT22;373;49.342;8.146;2022-12-07T04:45:01;5.70;99.90
780;DHT22;373;49.342;8.146;2022-12-07T04:47:28;5.80;99.90
780;DHT22;373;49.342;8.146;2022-12-07T04:49:55;5.70;99.90
780;DHT22;373;49.342;8.146;2022-12-07T04:52:23;5.70;99.90
780;DHT22;373;49.342;8.146;2022-12-07T04:54:50;5.70;99.90
780;DHT22;373;49.342;8.146;2022-12-07T04:57:18;5.50;99.90
780;DHT22;373;49.342;8.146;2022-12-07T04:59:45;5.50;99.90
780;DHT22;373;49.342;8.146;2022-12-07T05:02:12;5.60;99.90
780;DHT22;373;49.342;8.146;2022-12-07T05:04:39;5.50;99.90
780;DHT22;373;49.342;8.146;2022-12-07T05:07:06;5.50;99.90
780;DHT22;373;49.342;8.146;2022-12-07T05:09:35;5.50;99.90
780;DHT22;373;49.342;8.146;2022-12-07T05:12:02;5.50;99.90
780;DHT22;373;49.342;8.146;2022-12-07T05:14:29;5.60;99.90
780;DHT22;373;49.342;8.146;2022-12-07T05:16:56;5.50;99.90
780;DHT22;373;49.342;8.146;2022-12-07T05:19:23;5.50;99.90
780;DHT22;373;49.342;8.146;2022-12-07T05:21:50;5.50;99.90
780;DHT22;373;49.342;8.146;2022-12-07T05:24:17;5.60;99.90
780;DHT22;373;49.342;8.146;2022-12-07T05:26:45;5.40;99.90
780;DHT22;373;49.342;8.146;2022-12-07T05:29:14;5.30;99.90
780;DHT22;373;49.342;8.146;2022-12-07T05:31:41;5.30;99.90
780;DHT22;373;49.342;8.146;2022-12-07T05:34:09;5.40;99.90
780;DHT22;373;49.342;8.146;2022-12-07T05:36:36;5.30;99.90
780;DHT22;373;49.342;8.146;2022-12-07T05:39:03;5.50;99.90
780;DHT22;373;49.342;8.146;2022-12-07T05:41:30;5.50;99.90
780;DHT22;373;49.342;8.146;2022-12-07T05:44:16;5.40;99.90
780;DHT22;373;49.342;8.146;2022-12-07T05:46:43;5.50;99.90
780;DHT22;373;49.342;8.146;2022-12-07T05:49:10;5.60;99.90
780;DHT22;373;49.342;8.146;2022-12-07T05:51:37;5.50;99.90
780;DHT22;373;49.342;8.146;2022-12-07T05:54:05;5.40;99.90
780;DHT22;373;49.342;8.146;2022-12-07T05:56:32;5.40;99.90
780;DHT22;373;49.342;8.146;2022-12-07T05:58:59;5.40;99.90
780;DHT22;373;49.342;8.146;2022-12-07T06:01:44;5.40;99.90
780;DHT22;373;49.342;8.146;2022-12-07T06:04:12;5.40;99.90
780;DHT22;373;49.342;8.146;2022-12-07T06:06:39;5.50;99.90
780;DHT22;373;49.342;8.146;2022-12-07T06:09:06;5.40;99.90
780;DHT22;373;49.342;8.146;2022-12-07T06:11:33;5.50;99.90
780;DHT22;373;49.342;8.146;2022-12-07T06:14:17;5.50;99.90
780;DHT22;373;49.342;8.146;2022-12-07T06:16:46;5.50;99.90
780;DHT22;373;49.342;8.146;2022-12-07T06:19:13;5.50;99.90
780;DHT22;373;49.342;8.146;2022-12-07T06:21:40;5.60;99.90
780;DHT22;373;49.342;8.146;2022-12-07T06:24:09;5.60;99.90
780;DHT22;373;49.342;8.146;2022-12-07T06:26:37;5.60;99.90
780;DHT22;373;49.342;8.146;2022-12-07T06:29:05;5.60;99.90
780;DHT22;373;49.342;8.146;2022-12-07T06:31:32;5.70;99.90
780;DHT22;373;49.342;8.146;2022-12-07T06:34:01;5.80;99.90
780;DHT22;373;49.342;8.146;2022-12-07T06:36:29;5.80;99.90
780;DHT22;373;49.342;8.146;2022-12-07T06:38:56;5.80;99.90
780;DHT22;373;49.342;8.146;2022-12-07T06:41:24;5.70;99.90
780;DHT22;373;49.342;8.146;2022-12-07T06:43:51;5.80;99.90
780;DHT22;373;49.342;8.146;2022-12-07T06:46:19;5.80;99.90
780;DHT22;373;49.342;8.146;2022-12-07T06:48:46;5.80;99.90
780;DHT22;373;49.342;8.146;2022-12-07T06:51:15;6.20;99.90
780;DHT22;373;49.342;8.146;2022-12-07T06:53:42;6.10;99.90
780;DHT22;373;49.342;8.146;2022-12-07T06:56:09;5.90;99.90
780;DHT22;373;49.342;8.146;2022-12-07T06:58:36;6.00;99.90
780;DHT22;373;49.342;8.146;2022-12-07T07:01:09;5.90;99.90
780;DHT22;373;49.342;8.146;2022-12-07T07:03:40;6.00;99.90
780;DHT22;373;49.342;8.146;2022-12-07T07:06:08;5.90;99.90
780;DHT22;373;49.342;8.146;2022-12-07T07:08:37;6.00;99.90
780;DHT22;373;49.342;8.146;2022-12-07T07:11:05;5.90;99.90
780;DHT22;373;49.342;8.146;2022-12-07T07:13:32;5.60;99.90
780;DHT22;373;49.342;8.146;2022-12-07T07:15:59;5.50;99.90
780;DHT22;373;49.342;8.146;2022-12-07T07:18:26;5.50;99.90
780;DHT22;373;49.342;8.146;2022-12-07T07:20:54;5.40;99.90
780;DHT22;373;49.342;8.146;2022-12-07T07:23:21;5.40;99.90
780;DHT22;373;49.342;8.146;2022-12-07T07:25:50;5.40;99.90
780;DHT22;373;49.342;8.146;2022-12-07T07:28:17;5.30;99.90
780;DHT22;373;49.342;8.146;2022-12-07T07:30:44;5.20;99.90
780;DHT22;373;49.342;8.146;2022-12-07T07:33:12;5.30;99.90
780;DHT22;373;49.342;8.146;2022-12-07T07:35:39;5.40;99.90
780;DHT22;373;49.342;8.146;2022-12-07T07:38:07;5.70;99.90
780;DHT22;373;49.342;8.146;2022-12-07T07:40:34;5.60;99.90
780;DHT22;373;49.342;8.146;2022-12-07T07:43:03;5.60;99.90
780;DHT22;373;49.342;8.146;2022-12-07T07:45:30;5.70;99.90
780;DHT22;373;49.342;8.146;2022-12-07T07:52:16;5.80;99.90
780;DHT22;373;49.342;8.146;2022-12-07T07:54:43;5.60;99.90
780;DHT22;373;49.342;8.146;2022-12-07T07:57:10;5.50;99.90
780;DHT22;373;49.342;8.146;2022-12-07T07:59:39;5.50;99.90
780;DHT22;373;49.342;8.146;2022-12-07T08:02:07;5.60;99.90
780;DHT22;373;49.342;8.146;2022-12-07T08:04:36;5.50;99.90
780;DHT22;373;49.342;8.146;2022-12-07T08:07:03;5.50;99.90
780;DHT22;373;49.342;8.146;2022-12-07T08:09:30;5.50;99.90
780;DHT22;373;49.342;8.146;2022-12-07T08:11:57;5.50;99.90
780;DHT22;373;49.342;8.146;2022-12-07T08:14:24;5.50;99.90
780;DHT22;373;49.342;8.146;2022-12-07T08:16:54;5.50;99.90
780;DHT22;373;49.342;8.146;2022-12-07T08:19:21;5.50;99.90
780;DHT22;373;49.342;8.146;2022-12-07T08:21:49;5.50;99.90
780;DHT22;373;49.342;8.146;2022-12-07T08:24:16;5.70;99.90
780;DHT22;373;49.342;8.146;2022-12-07T08:26:43;5.60;99.90
780;DHT22;373;49.342;8.146;2022-12-07T08:29:10;5.50;99.90
780;DHT22;373;49.342;8.146;2022-12-07T08:31:37;5.40;99.90
780;DHT22;373;49.342;8.146;2022-12-07T08:34:06;5.50;99.90
780;DHT22;373;49.342;8.146;2022-12-07T08:36:33;5.60;99.90
780;DHT22;373;49.342;8.146;2022-12-07T08:39:00;5.80;99.90
780;DHT22;373;49.342;8.146;2022-12-07T08:41:28;5.90;99.90
780;DHT22;373;49.342;8.146;2022-12-07T08:43:55;5.70;99.90
780;DHT22;373;49.342;8.146;2022-12-07T08:46:25;5.80;99.90
780;DHT22;373;49.342;8.146;2022-12-07T08:48:56;5.90;99.90
780;DHT22;373;49.342;8.146;2022-12-07T08:51:26;6.30;99.90
780;DHT22;373;49.342;8.146;2022-12-07T08:53:54;6.50;99.90
780;DHT22;373;49.342;8.146;2022-12-07T08:56:22;6.70;99.90
780;DHT22;373;49.342;8.146;2022-12-07T08:58:49;6.90;99.90
780;DHT22;373;49.342;8.146;2022-12-07T09:01:16;7.00;99.90
780;DHT22;373;49.342;8.146;2022-12-07T09:03:44;6.90;99.90
780;DHT22;373;49.342;8.146;2022-12-07T09:06:11;6.90;99.90
780;DHT22;373;49.342;8.146;2022-12-07T09:08:42;7.00;99.90
780;DHT22;373;49.342;8.146;2022-12-07T09:11:11;7.10;99.90
780;DHT22;373;49.342;8.146;2022-12-07T09:13:38;7.20;99.90
780;DHT22;373;49.342;8.146;2022-12-07T09:16:05;7.20;99.90
780;DHT22;373;49.342;8.146;2022-12-07T09:18:32;7.10;99.90
780;DHT22;373;49.342;8.146;2022-12-07T09:21:00;7.30;99.90
780;DHT22;373;49.342;8.146;2022-12-07T09:23:27;6.90;99.90
780;DHT22;373;49.342;8.146;2022-12-07T09:25:59;6.60;99.90
780;DHT22;373;49.342;8.146;2022-12-07T09:28:26;6.70;99.90
780;DHT22;373;49.342;8.146;2022-12-07T09:30:53;6.50;99.90
780;DHT22;373;49.342;8.146;2022-12-07T09:33:20;6.50;99.90
780;DHT22;373;49.342;8.146;2022-12-07T09:35:48;6.70;99.90
780;DHT22;373;49.342;8.146;2022-12-07T09:38:16;6.90;99.90
780;DHT22;373;49.342;8.146;2022-12-07T09:40:43;7.00;99.90
780;DHT22;373;49.342;8.146;2022-12-07T09:43:15;7.50;99.90
780;DHT22;373;49.342;8.146;2022-12-07T09:45:44;7.60;99.90
780;DHT22;373;49.342;8.146;2022-12-07T09:48:17;7.80;99.80
780;DHT22;373;49.342;8.146;2022-12-07T09:50:46;7.80;99.90
780;DHT22;373;49.342;8.146;2022-12-07T09:53:15;7.90;99.90
780;DHT22;373;49.342;8.146;2022-12-07T09:55:43;7.80;98.90
780;DHT22;373;49.342;8.146;2022-12-07T09:58:19;7.60;98.90
780;DHT22;373;49.342;8.146;2022-12-07T10:00:47;7.80;99.80
780;DHT22;373;49.342;8.146;2022-12-07T10:03:14;8.20;99.20
780;DHT22;373;49.342;8.146;2022-12-07T10:05:45;8.50;98.80
780;DHT22;373;49.342;8.146;2022-12-07T10:08:15;8.60;98.20
780;DHT22;373;49.342;8.146;2022-12-07T10:10:44;8.70;97.60
780;DHT22;373;49.342;8.146;2022-12-07T10:13:14;8.60;97.70
780;DHT22;373;49.342;8.146;2022-12-07T10:15:47;8.60;97.30
780;DHT22;373;49.342;8.146;2022-12-07T10:18:27;8.80;96.80
780;DHT22;373;49.342;8.146;2022-12-07T10:24:02;8.80;97.00
780;DHT22;373;49.342;8.146;2022-12-07T10:26:32;8.70;96.30
780;DHT22;373;49.342;8.146;2022-12-07T10:29:04;8.60;96.20
780;DHT22;373;49.342;8.146;2022-12-07T10:31:40;8.50;97.20
780;DHT22;373;49.342;8.146;2022-12-07T10:34:21;8.60;96.50
780;DHT22;373;49.342;8.146;2022-12-07T10:36:50;8.10;97.00
780;DHT22;373;49.342;8.146;2022-12-07T10:39:20;8.00;97.50
780;DHT22;373;49.342;8.146;2022-12-07T10:41:53;7.80;98.30
780;DHT22;373;49.342;8.146;2022-12-07T10:44:25;8.00;99.00
780;DHT22;373;49.342;8.146;2022-12-07T10:47:09;8.30;98.00
780;DHT22;373;49.342;8.146;2022-12-07T10:50:08;8.10;97.20
780;DHT22;373;49.342;8.146;2022-12-07T10:53:03;8.00;97.20
780;DHT22;373;49.342;8.146;2022-12-07T10:55:46;8.00;98.30
780;DHT22;373;49.342;8.146;2022-12-07T10:58:28;8.50;97.40
780;DHT22;373;49.342;8.146;2022-12-07T11:01:06;8.40;96.80
780;DHT22;373;49.342;8.146;2022-12-07T11:06:49;7.60;99.00
780;DHT22;373;49.342;8.146;2022-12-07T11:09:35;7.20;99.90
780;DHT22;373;49.342;8.146;2022-12-07T11:12:12;7.00;99.90
780;DHT22;373;49.342;8.146;2022-12-07T11:14:51;7.10;99.90
780;DHT22;373;49.342;8.146;2022-12-07T11:17:25;7.20;99.90
780;DHT22;373;49.342;8.146;2022-12-07T11:20:01;7.40;99.90
780;DHT22;373;49.342;8.146;2022-12-07T11:22:38;7.80;99.90
780;DHT22;373;49.342;8.146;2022-12-07T11:25:19;7.70;99.40
780;DHT22;373;49.342;8.146;2022-12-07T11:27:52;7.90;99.10
780;DHT22;373;49.342;8.146;2022-12-07T11:30:24;8.20;99.20
780;DHT22;373;49.342;8.146;2022-12-07T11:33:10;8.40;97.60
780;DHT22;373;49.342;8.146;2022-12-07T11:35:50;8.50;97.50
780;DHT22;373;49.342;8.146;2022-12-07T11:38:22;8.40;97.30
780;DHT22;373;49.342;8.146;2022-12-07T11:40:53;8.40;97.60
780;DHT22;373;49.342;8.146;2022-12-07T11:43:49;8.30;96.60
780;DHT22;373;49.342;8.146;2022-12-07T11:46:17;8.00;97.70
780;DHT22;373;49.342;8.146;2022-12-07T11:48:50;8.10;96.50
780;DHT22;373;49.342;8.146;2022-12-07T11:51:22;8.20;95.40
780;DHT22;373;49.342;8.146;2022-12-07T11:53:53;8.10;95.60
780;DHT22;373;49.342;8.146;2022-12-07T11:56:25;8.20;95.70
780;DHT22;373;49.342;8.146;2022-12-07T11:58:57;8.20;95.80
780;DHT22;373;49.342;8.146;2022-12-07T12:01:31;8.30;96.30
780;DHT22;373;49.342;8.146;2022-12-07T12:04:13;8.30;95.60
780;DHT22;373;49.342;8.146;2022-12-07T12:06:44;8.20;95.80
780;DHT22;373;49.342;8.146;2022-12-07T12:09:13;8.30;95.90
780;DHT22;373;49.342;8.146;2022-12-07T12:11:56;8.10;95.90
780;DHT22;373;49.342;8.146;2022-12-07T12:14:41;8.00;95.50
780;DHT22;373;49.342;8.146;2022-12-07T12:20:22;7.80;95.90
780;DHT22;373;49.342;8.146;2022-12-07T12:22:53;7.80;95.90
780;DHT22;373;49.342;8.146;2022-12-07T12:25:25;8.00;96.00
780;DHT22;373;49.342;8.146;2022-12-07T12:27:55;8.10;95.90
780;DHT22;373;49.342;8.146;2022-12-07T12:30:29;8.20;95.70
780;DHT22;373;49.342;8.146;2022-12-07T12:33:03;8.30;95.90
780;DHT22;373;49.342;8.146;2022-12-07T12:35:34;8.00;95.10
780;DHT22;373;49.342;8.146;2022-12-07T12:38:32;8.10;94.90
780;DHT22;373;49.342;8.146;2022-12-07T12:41:01;7.90;94.00
780;DHT22;373;49.342;8.146;2022-12-07T12:43:50;7.90;93.90
780;DHT22;373;49.342;8.146;2022-12-07T12:49:36;7.90;94.70
780;DHT22;373;49.342;8.146;2022-12-07T12:58:35;8.10;95.30
780;DHT22;373;49.342;8.146;2022-12-07T13:01:38;8.20;95.10
780;DHT22;373;49.342;8.146;2022-12-07T13:04:28;8.20;95.40
780;DHT22;373;49.342;8.146;2022-12-07T13:07:01;8.40;95.00
780;DHT22;373;49.342;8.146;2022-12-07T13:09:30;8.80;94.30
780;DHT22;373;49.342;8.146;2022-12-07T13:12:02;8.50;94.80
780;DHT22;373;49.342;8.146;2022-12-07T13:14:59;8.60;94.80
780;DHT22;373;49.342;8.146;2022-12-07T13:18:01;8.40;94.70
780;DHT22;373;49.342;8.146;2022-12-07T13:20:47;8.40;94.00
780;DHT22;373;49.342;8.146;2022-12-07T13:23:19;8.50;94.20
780;DHT22;373;49.342;8.146;2022-12-07T13:26:00;8.10;94.30
780;DHT22;373;49.342;8.146;2022-12-07T13:28:35;7.80;94.50
780;DHT22;373;49.342;8.146;2022-12-07T13:33:58;7.90;94.50
780;DHT22;373;49.342;8.146;2022-12-07T13:36:27;8.00;94.90
780;DHT22;373;49.342;8.146;2022-12-07T13:38:58;8.00;94.40
780;DHT22;373;49.342;8.146;2022-12-07T13:41:26;7.90;94.60
780;DHT22;373;49.342;8.146;2022-12-07T13:44:01;7.70;94.60
780;DHT22;373;49.342;8.146;2022-12-07T13:46:42;7.60;95.60
780;DHT22;373;49.342;8.146;2022-12-07T13:49:18;7.60;95.40
780;DHT22;373;49.342;8.146;2022-12-07T13:51:47;7.40;95.70
780;DHT22;373;49.342;8.146;2022-12-07T13:54:14;7.30;96.10
780;DHT22;373;49.342;8.146;2022-12-07T13:56:42;7.20;96.70
780;DHT22;373;49.342;8.146;2022-12-07T13:59:14;7.10;96.90
780;DHT22;373;49.342;8.146;2022-12-07T14:01:45;7.10;97.40
780;DHT22;373;49.342;8.146;2022-12-07T14:04:28;7.00;97.40
780;DHT22;373;49.342;8.146;2022-12-07T14:06:56;7.10;98.00
780;DHT22;373;49.342;8.146;2022-12-07T14:09:25;7.40;97.50
780;DHT22;373;49.342;8.146;2022-12-07T14:11:54;7.30;97.40
780;DHT22;373;49.342;8.146;2022-12-07T14:14:23;7.30;97.40
780;DHT22;373;49.342;8.146;2022-12-07T14:16:59;7.10;97.70
780;DHT22;373;49.342;8.146;2022-12-07T14:19:45;7.20;98.20
780;DHT22;373;49.342;8.146;2022-12-07T14:22:31;7.40;97.30
780;DHT22;373;49.342;8.146;2022-12-07T14:25:19;7.30;97.10
780;DHT22;373;49.342;8.146;2022-12-07T14:27:50;7.60;97.40
780;DHT22;373;49.342;8.146;2022-12-07T14:30:19;7.80;96.70
780;DHT22;373;49.342;8.146;2022-12-07T14:32:50;7.90;96.10
780;DHT22;373;49.342;8.146;2022-12-07T14:35:18;7.90;95.10
780;DHT22;373;49.342;8.146;2022-12-07T14:37:47;7.70;95.40
780;DHT22;373;49.342;8.146;2022-12-07T14:40:17;7.60;95.50
780;DHT22;373;49.342;8.146;2022-12-07T14:42:45;7.50;95.60
780;DHT22;373;49.342;8.146;2022-12-07T14:45:15;7.40;95.60
780;DHT22;373;49.342;8.146;2022-12-07T14:47:43;7.20;95.80
780;DHT22;373;49.342;8.146;2022-12-07T14:50:14;7.40;96.00
780;DHT22;373;49.342;8.146;2022-12-07T14:52:43;7.40;95.60
780;DHT22;373;49.342;8.146;2022-12-07T14:55:14;7.50;95.50
780;DHT22;373;49.342;8.146;2022-12-07T14:57:43;7.30;95.70
780;DHT22;373;49.342;8.146;2022-12-07T15:00:14;7.30;96.10
780;DHT22;373;49.342;8.146;2022-12-07T15:02:43;7.50;96.20
780;DHT22;373;49.342;8.146;2022-12-07T15:05:10;7.90;96.10
780;DHT22;373;49.342;8.146;2022-12-07T15:07:39;8.00;95.10
780;DHT22;373;49.342;8.146;2022-12-07T15:10:14;7.70;94.80
780;DHT22;373;49.342;8.146;2022-12-07T15:12:42;7.40;95.90
780;DHT22;373;49.342;8.146;2022-12-07T15:15:09;7.20;96.10
780;DHT22;373;49.342;8.146;2022-12-07T15:17:36;7.10;96.60
780;DHT22;373;49.342;8.146;2022-12-07T15:20:05;7.00;96.80
780;DHT22;373;49.342;8.146;2022-12-07T15:22:33;6.90;96.80
780;DHT22;373;49.342;8.146;2022-12-07T15:25:01;6.80;97.30
780;DHT22;373;49.342;8.146;2022-12-07T15:27:30;6.70;97.50
780;DHT22;373;49.342;8.146;2022-12-07T15:29:57;6.50;97.80
780;DHT22;373;49.342;8.146;2022-12-07T15:32:25;6.60;98.10
780;DHT22;373;49.342;8.146;2022-12-07T15:34:52;6.40;98.80
780;DHT22;373;49.342;8.146;2022-12-07T15:37:19;6.50;99.80
780;DHT22;373;49.342;8.146;2022-12-07T15:39:46;6.40;99.90
780;DHT22;373;49.342;8.146;2022-12-07T15:42:14;6.50;99.90
780;DHT22;373;49.342;8.146;2022-12-07T15:44:41;6.40;99.90
780;DHT22;373;49.342;8.146;2022-12-07T15:47:26;6.30;99.90
780;DHT22;373;49.342;8.146;2022-12-07T15:49:53;6.10;99.90
780;DHT22;373;49.342;8.146;2022-12-07T15:52:20;6.10;99.90
780;DHT22;373;49.342;8.146;2022-12-07T15:54:47;6.10;99.90
780;DHT22;373;49.342;8.146;2022-12-07T15:57:16;6.30;99.90
780;DHT22;373;49.342;8.146;2022-12-07T15:59:43;6.20;99.90
780;DHT22;373;49.342;8.146;2022-12-07T16:02:10;6.00;99.90
780;DHT22;373;49.342;8.146;2022-12-07T16:04:37;6.00;99.90
780;DHT22;373;49.342;8.146;2022-12-07T16:07:05;6.00;99.90
780;DHT22;373;49.342;8.146;2022-12-07T16:09:32;6.20;99.90
780;DHT22;373;49.342;8.146;2022-12-07T16:11:59;6.10;99.90
780;DHT22;373;49.342;8.146;2022-12-07T16:14:28;6.10;99.90
780;DHT22;373;49.342;8.146;2022-12-07T16:16:55;6.10;99.90
780;DHT22;373;49.342;8.146;2022-12-07T16:19:22;6.20;99.90
780;DHT22;373;49.342;8.146;2022-12-07T16:21:49;6.40;99.90
780;DHT22;373;49.342;8.146;2022-12-07T16:24:16;6.50;99.90
780;DHT22;373;49.342;8.146;2022-12-07T16:26:44;6.50;99.90
780;DHT22;373;49.342;8.146;2022-12-07T16:29:12;6.80;99.90
780;DHT22;373;49.342;8.146;2022-12-07T16:31:41;7.00;99.70
780;DHT22;373;49.342;8.146;2022-12-07T16:34:09;6.90;99.50
780;DHT22;373;49.342;8.146;2022-12-07T16:36:36;7.00;99.50
780;DHT22;373;49.342;8.146;2022-12-07T16:39:04;6.90;99.00
780;DHT22;373;49.342;8.146;2022-12-07T16:41:32;6.80;99.60
780;DHT22;373;49.342;8.146;2022-12-07T16:44:02;6.90;98.50
780;DHT22;373;49.342;8.146;2022-12-07T16:46:30;6.80;98.40
780;DHT22;373;49.342;8.146;2022-12-07T16:48:59;6.70;98.80
780;DHT22;373;49.342;8.146;2022-12-07T16:51:26;6.20;99.70
780;DHT22;373;49.342;8.146;2022-12-07T16:53:53;6.20;99.90
780;DHT22;373;49.342;8.146;2022-12-07T16:56:21;6.10;99.90
780;DHT22;373;49.342;8.146;2022-12-07T16:58:48;6.40;99.90
780;DHT22;373;49.342;8.146;2022-12-07T17:01:16;6.60;99.90
780;DHT22;373;49.342;8.146;2022-12-07T17:03:45;6.50;99.90
780;DHT22;373;49.342;8.146;2022-12-07T17:06:19;6.50;99.90
780;DHT22;373;49.342;8.146;2022-12-07T17:08:47;6.50;99.90
780;DHT22;373;49.342;8.146;2022-12-07T17:11:16;6.80;99.90
780;DHT22;373;49.342;8.146;2022-12-07T17:13:44;6.60;99.90
780;DHT22;373;49.342;8.146;2022-12-07T17:16:29;6.70;99.50
780;DHT22;373;49.342;8.146;2022-12-07T17:18:56;6.50;99.60
780;DHT22;373;49.342;8.146;2022-12-07T17:21:25;6.70;99.30
780;DHT22;373;49.342;8.146;2022-12-07T17:23:52;6.80;98.80
780;DHT22;373;49.342;8.146;2022-12-07T17:26:23;7.00;98.50
780;DHT22;373;49.342;8.146;2022-12-07T17:28:51;6.90;98.60
780;DHT22;373;49.342;8.146;2022-12-07T17:31:20;7.10;98.40
780;DHT22;373;49.342;8.146;2022-12-07T17:33:47;6.80;98.40
780;DHT22;373;49.342;8.146;2022-12-07T17:36:17;6.50;99.40
780;DHT22;373;49.342;8.146;2022-12-07T17:38:46;6.40;99.90
780;DHT22;373;49.342;8.146;2022-12-07T17:41:15;6.20;99.90
780;DHT22;373;49.342;8.146;2022-12-07T17:44:05;5.80;99.90
780;DHT22;373;49.342;8.146;2022-12-07T17:46:32;5.60;99.90